createdAt,value
2023-04-28T00:01:04.378Z,10.73
2023-04-28T00:03:34.515Z,10.23
2023-04-28T00:06:04.549Z,10.93
2023-04-28T00:08:37.369Z,10.05
2023-04-28T00:11:07.541Z,9.88
2023-04-28T00:13:37.508Z,10.50
2023-04-28T00:16:08.605Z,10.55
2023-04-28T00:18:38.586Z,10.50
2023-04-28T00:21:08.805Z,9.85
2023-04-28T00:23:41.350Z,10.27
2023-04-28T00:26:12.490Z,10.13
2023-04-28T00:28:42.461Z,11.07
2023-04-28T00:31:16.705Z,10.60
2023-04-28T00:33:47.817Z,10.95
2023-04-28T00:36:17.797Z,10.55
2023-04-28T00:38:50.378Z,10.35
2023-04-28T00:41:20.340Z,10.48
2023-04-28T00:43:51.615Z,11.02
2023-04-28T00:46:25.861Z,10.27
2023-04-28T00:48:56.203Z,10.73
2023-04-28T00:51:27.819Z,10.82
2023-04-28T00:54:00.604Z,10.35
2023-04-28T00:56:32.173Z,10.88
2023-04-28T00:59:02.176Z,10.90
2023-04-28T01:01:33.702Z,10.10
2023-04-28T01:04:04.349Z,10.57
2023-04-28T01:06:36.157Z,10.30
2023-04-28T01:09:08.723Z,11.15
2023-04-28T01:11:38.680Z,10.27
2023-04-28T01:14:08.668Z,10.70
2023-04-28T01:16:39.089Z,10.20
2023-04-28T01:19:11.608Z,10.02
2023-04-28T01:21:41.595Z,10.60
2023-04-28T01:24:14.690Z,10.23
2023-04-28T01:26:44.895Z,9.30
2023-04-28T01:29:14.966Z,9.23
2023-04-28T01:31:45.092Z,9.98
2023-04-28T01:34:15.321Z,10.40
2023-04-28T01:36:45.461Z,9.80
2023-04-28T01:39:18.093Z,9.50
2023-04-28T01:41:48.156Z,9.13
2023-04-28T01:44:18.389Z,9.23
2023-04-28T01:46:48.631Z,8.85
2023-04-28T01:49:18.566Z,8.98
2023-04-28T01:51:48.617Z,8.25
2023-04-28T01:54:21.272Z,8.00
2023-04-28T01:56:51.245Z,8.63
2023-04-28T01:59:21.648Z,9.45
2023-04-28T02:01:51.677Z,8.75
2023-04-28T02:04:21.755Z,7.78
2023-04-28T02:06:51.837Z,8.32
2023-04-28T02:09:24.385Z,8.57
2023-04-28T02:11:54.407Z,8.18
2023-04-28T02:14:24.457Z,8.00
2023-04-28T02:16:54.502Z,8.18
2023-04-28T02:19:24.482Z,6.78
2023-04-28T02:21:54.425Z,7.68
2023-04-28T02:24:27.017Z,7.32
2023-04-28T02:26:57.458Z,8.18
2023-04-28T02:29:27.827Z,7.55
2023-04-28T02:31:57.854Z,7.53
2023-04-28T02:34:27.894Z,7.47
2023-04-28T02:36:57.851Z,7.40
2023-04-28T02:39:31.320Z,8.00
2023-04-28T02:42:01.358Z,7.57
2023-04-28T02:44:31.400Z,7.43
2023-04-28T02:47:02.166Z,7.25
2023-04-28T02:49:32.300Z,7.00
2023-04-28T02:52:02.250Z,7.22
2023-04-28T02:54:36.713Z,7.22
2023-04-28T02:57:07.413Z,7.47
2023-04-28T02:59:37.397Z,7.40
2023-04-28T03:02:07.381Z,6.90
2023-04-28T03:04:37.419Z,6.82
2023-04-28T03:07:07.473Z,6.95
2023-04-28T03:09:42.175Z,6.88
2023-04-28T03:12:12.352Z,7.25
2023-04-28T03:14:42.303Z,7.22
2023-04-28T03:17:14.536Z,6.85
2023-04-28T03:19:44.489Z,7.10
2023-04-28T03:22:14.830Z,6.18
2023-04-28T03:24:47.346Z,6.70
2023-04-28T03:27:17.480Z,6.85
2023-04-28T03:29:47.441Z,6.97
2023-04-28T03:32:17.482Z,6.50
2023-04-28T03:34:47.516Z,6.43
2023-04-28T03:37:17.496Z,6.38
2023-04-28T03:39:50.011Z,6.40
2023-04-28T03:42:19.960Z,6.80
2023-04-28T03:44:49.920Z,7.05
2023-04-28T03:47:19.898Z,6.53
2023-04-28T03:49:49.858Z,6.93
2023-04-28T03:52:19.831Z,5.93
2023-04-28T03:54:52.342Z,6.30
2023-04-28T03:57:22.286Z,5.95
2023-04-28T03:59:52.311Z,7.03
2023-04-28T04:02:22.376Z,6.25
2023-04-28T04:04:52.836Z,5.57
2023-04-28T04:07:23.246Z,6.25
2023-04-28T04:09:56.261Z,6.63
2023-04-28T04:12:26.290Z,6.00
2023-04-28T04:14:56.243Z,5.80
2023-04-28T04:17:26.613Z,6.30
2023-04-28T04:19:56.576Z,6.45
2023-04-28T04:22:26.536Z,5.85
2023-04-28T04:24:59.099Z,6.50
2023-04-28T04:27:29.224Z,6.50
2023-04-28T04:29:59.199Z,6.70
2023-04-28T04:32:29.206Z,6.78
2023-04-28T04:34:59.195Z,7.70
2023-04-28T04:37:29.345Z,7.30
2023-04-28T04:40:01.905Z,9.48
2023-04-28T04:42:31.954Z,10.20
2023-04-28T04:45:01.930Z,9.75
2023-04-28T04:47:32.053Z,9.15
2023-04-28T04:50:02.148Z,8.50
2023-04-28T04:52:32.252Z,7.68
2023-04-28T04:55:04.810Z,6.68
2023-04-28T04:57:34.963Z,7.65
2023-04-28T05:00:04.970Z,6.65
2023-04-28T05:02:35.238Z,6.47
2023-04-28T05:05:19.899Z,6.07
2023-04-28T05:07:51.471Z,5.82
2023-04-28T05:10:24.478Z,6.45
2023-04-28T05:12:54.577Z,6.03
2023-04-28T05:15:24.937Z,5.65
2023-04-28T05:17:57.889Z,6.32
2023-04-28T05:20:28.007Z,5.38
2023-04-28T05:22:57.991Z,5.75
2023-04-28T05:25:30.788Z,5.53
2023-04-28T05:28:04.980Z,11.93
2023-04-28T05:30:34.970Z,21.02
2023-04-28T05:33:05.056Z,10.98
2023-04-28T05:35:35.278Z,7.57
2023-04-28T05:38:05.312Z,6.35
2023-04-28T05:40:37.888Z,5.53
2023-04-28T05:43:07.912Z,5.28
2023-04-28T05:45:37.928Z,5.25
2023-04-28T05:48:08.918Z,5.45
2023-04-28T05:50:39.279Z,5.20
2023-04-28T05:53:10.095Z,5.80
2023-04-28T05:55:42.726Z,6.25
2023-04-28T05:58:12.920Z,5.20
2023-04-28T06:00:42.918Z,4.68
2023-04-28T06:03:15.059Z,5.22
2023-04-28T06:05:45.511Z,5.60
2023-04-28T06:08:15.686Z,5.25
2023-04-28T06:10:48.260Z,5.78
2023-04-28T06:13:18.218Z,5.70
2023-04-28T06:15:48.304Z,5.50
2023-04-28T06:18:18.581Z,5.03
2023-04-28T06:20:48.610Z,5.30
2023-04-28T06:23:18.666Z,5.03
2023-04-28T06:25:51.300Z,5.28
2023-04-28T06:28:21.276Z,5.18
2023-04-28T06:30:51.415Z,5.20
2023-04-28T06:33:21.468Z,5.53
2023-04-28T06:35:51.448Z,4.82
2023-04-28T06:38:21.469Z,5.20
2023-04-28T06:40:54.070Z,5.07
2023-04-28T06:43:24.039Z,5.00
2023-04-28T06:45:53.991Z,4.50
2023-04-28T06:48:25.519Z,4.78
2023-04-28T06:50:55.533Z,5.68
2023-04-28T06:53:25.493Z,5.20
2023-04-28T06:55:59.285Z,4.53
2023-04-28T06:58:29.327Z,4.73
2023-04-28T07:00:59.355Z,4.65
2023-04-28T07:03:30.424Z,4.72
2023-04-28T07:06:01.273Z,4.47
2023-04-28T07:08:31.289Z,4.43
2023-04-28T07:11:05.009Z,3.90
2023-04-28T07:13:35.201Z,3.17
2023-04-28T07:16:11.460Z,3.72
2023-04-28T07:18:41.820Z,4.25
2023-04-28T07:21:14.743Z,3.30
2023-04-28T07:23:46.271Z,3.38
2023-04-28T07:26:21.016Z,4.00
2023-04-28T07:28:52.373Z,3.63
2023-04-28T07:31:23.945Z,3.22
2023-04-28T07:33:54.339Z,3.92
2023-04-28T07:36:28.429Z,3.30
2023-04-28T07:38:59.762Z,4.45
2023-04-28T07:41:33.280Z,4.07
2023-04-28T07:44:05.242Z,4.13
2023-04-28T07:46:35.984Z,3.78
2023-04-28T07:49:10.918Z,4.43
2023-04-28T07:51:41.216Z,4.65
2023-04-28T07:54:11.251Z,3.75
2023-04-28T07:56:43.861Z,3.80
2023-04-28T07:59:13.848Z,4.13
2023-04-28T08:01:44.101Z,3.20
2023-04-28T08:04:14.825Z,3.92
2023-04-28T08:06:50.535Z,3.67
2023-04-28T08:09:20.677Z,3.28
2023-04-28T08:11:53.295Z,4.28
2023-04-28T08:14:35.054Z,4.20
2023-04-28T08:17:05.062Z,3.60
2023-04-28T08:19:35.467Z,3.53
2023-04-28T08:22:07.425Z,3.80
2023-04-28T08:24:37.421Z,3.88
2023-04-28T08:27:10.171Z,3.72
2023-04-28T08:29:40.504Z,3.67
2023-04-28T08:32:10.484Z,3.95
2023-04-28T08:34:40.457Z,4.40
2023-04-28T08:37:11.164Z,3.47
2023-04-28T08:39:41.100Z,3.78
2023-04-28T08:42:13.678Z,3.50
2023-04-28T08:44:43.995Z,3.83
2023-04-28T08:47:16.660Z,3.35
2023-04-28T08:49:48.492Z,4.15
2023-04-28T08:52:22.019Z,4.18
2023-04-28T08:54:53.922Z,2.67
2023-04-28T08:57:27.427Z,3.65
2023-04-28T08:59:57.712Z,4.15
2023-04-28T09:02:27.887Z,4.68
2023-04-28T09:04:58.429Z,4.30
2023-04-28T09:07:28.578Z,4.30
2023-04-28T09:10:19.587Z,3.33
2023-04-28T09:12:55.397Z,4.25
2023-04-28T09:15:34.599Z,4.43
2023-04-28T09:18:06.417Z,4.30
2023-04-28T09:20:38.280Z,4.18
2023-04-28T09:23:20.332Z,5.10
2023-04-28T09:26:02.063Z,1.95
2023-04-28T09:28:35.008Z,3.25
2023-04-28T09:31:05.934Z,4.25
2023-04-28T09:33:36.163Z,4.72
2023-04-28T09:36:06.426Z,4.80
2023-04-28T09:38:47.073Z,4.15
2023-04-28T09:41:17.179Z,5.28
2023-04-28T09:43:49.793Z,6.07
2023-04-28T09:46:32.695Z,4.57
2023-04-28T09:49:04.701Z,5.47
2023-04-28T09:51:35.692Z,4.75
2023-04-28T09:54:07.236Z,4.65
2023-04-28T09:56:41.445Z,4.82
2023-04-28T09:59:14.305Z,4.00
2023-04-28T10:01:46.374Z,5.32
2023-04-28T10:04:17.376Z,5.70
2023-04-28T10:06:47.671Z,2.95
2023-04-28T10:09:18.279Z,5.50
2023-04-28T10:11:49.053Z,4.88
2023-04-28T10:14:22.305Z,5.63
2023-04-28T10:16:54.791Z,5.55
2023-04-28T10:19:25.022Z,5.00
2023-04-28T10:22:13.776Z,5.65
2023-04-28T10:25:02.167Z,3.92
2023-04-28T10:27:34.036Z,4.90
2023-04-28T10:32:51.741Z,4.93
2023-04-28T10:35:47.941Z,5.22
2023-04-28T10:38:21.549Z,3.90
2023-04-28T10:40:52.709Z,5.03
2023-04-28T10:43:39.616Z,4.93
2023-04-28T10:46:15.934Z,5.40
2023-04-28T10:49:01.804Z,4.38
2023-04-28T10:51:33.353Z,3.30
2023-04-28T10:54:20.197Z,4.20
2023-04-28T10:57:32.275Z,4.22
2023-04-28T11:00:33.261Z,4.93
2023-04-28T11:03:06.565Z,5.32
2023-04-28T11:05:37.450Z,4.82
2023-04-28T11:08:34.694Z,5.82
2023-04-28T11:11:21.660Z,5.05
2023-04-28T11:13:52.377Z,5.22
2023-04-28T11:16:29.050Z,4.93
2023-04-28T11:19:06.209Z,5.10
2023-04-28T11:21:36.577Z,4.95
2023-04-28T11:24:14.126Z,4.80
2023-04-28T11:26:44.670Z,5.47
2023-04-28T11:29:15.745Z,4.90
2023-04-28T11:31:53.045Z,4.95
2023-04-28T11:34:26.905Z,5.55
2023-04-28T11:36:57.336Z,5.03
2023-04-28T11:39:32.371Z,5.45
2023-04-28T11:42:04.353Z,4.50
2023-04-28T11:44:34.693Z,5.20
2023-04-28T11:47:07.126Z,4.53
2023-04-28T11:49:49.519Z,4.80
2023-04-28T11:52:20.784Z,5.30
2023-04-28T11:54:56.822Z,4.57
2023-04-28T11:57:26.977Z,5.72
2023-04-28T11:59:57.163Z,5.90
2023-04-28T12:02:32.001Z,6.70
2023-04-28T12:05:13.121Z,4.60
2023-04-28T12:07:47.661Z,5.18
2023-04-28T12:10:20.030Z,5.57
2023-04-28T12:12:53.130Z,2.50
2023-04-28T12:15:25.562Z,6.07
2023-04-28T12:17:55.612Z,5.43
2023-04-28T12:20:42.815Z,5.65
2023-04-28T12:23:12.866Z,5.53
2023-04-28T12:25:51.673Z,5.70
2023-04-28T12:28:21.668Z,7.00
2023-04-28T12:30:51.731Z,5.75
2023-04-28T12:33:29.796Z,5.43
2023-04-28T12:36:02.736Z,4.93
2023-04-28T12:38:33.266Z,5.05
2023-04-28T12:41:03.278Z,5.32
2023-04-28T12:43:33.751Z,5.05
2023-04-28T12:46:04.246Z,5.53
2023-04-28T12:48:35.046Z,5.18
2023-04-28T12:51:09.060Z,5.63
2023-04-28T12:53:39.033Z,5.93
2023-04-28T12:56:10.502Z,5.95
2023-04-28T12:58:41.251Z,6.53
2023-04-28T13:01:11.292Z,4.70
2023-04-28T13:03:41.407Z,5.25
2023-04-28T13:06:14.224Z,6.25
2023-04-28T13:08:45.126Z,5.88
2023-04-28T13:11:22.853Z,5.13
2023-04-28T13:13:53.498Z,4.75
2023-04-28T13:16:25.315Z,4.45
2023-04-28T13:18:55.310Z,4.60
2023-04-28T13:21:28.802Z,4.03
2023-04-28T13:23:59.494Z,5.20
2023-04-28T13:26:30.458Z,5.00
2023-04-28T13:29:00.686Z,5.05
2023-04-28T13:31:30.714Z,5.40
2023-04-28T13:34:02.188Z,4.93
2023-04-28T13:36:35.551Z,5.05
2023-04-28T13:39:06.447Z,5.35
2023-04-28T13:41:36.997Z,5.03
2023-04-28T13:44:07.017Z,4.82
2023-04-28T13:46:37.007Z,4.80
2023-04-28T13:49:07.439Z,4.57
2023-04-28T13:51:40.086Z,4.97
2023-04-28T13:54:11.742Z,4.22
2023-04-28T13:56:41.781Z,5.15
2023-04-28T13:59:12.278Z,5.38
2023-04-28T14:01:42.325Z,3.90
2023-04-28T14:04:12.543Z,4.75
2023-04-28T14:06:45.372Z,4.88
2023-04-28T14:09:15.335Z,4.85
2023-04-28T14:11:45.339Z,4.55
2023-04-28T14:14:15.345Z,5.40
2023-04-28T14:16:45.397Z,4.88
2023-04-28T14:19:18.452Z,4.20
2023-04-28T14:21:51.011Z,4.47
2023-04-28T14:24:21.277Z,5.35
2023-04-28T14:26:51.532Z,5.05
2023-04-28T14:29:21.589Z,5.00
2023-04-28T14:31:51.658Z,4.10
2023-04-28T14:34:21.774Z,4.22
2023-04-28T14:36:54.588Z,5.03
2023-04-28T14:39:24.570Z,5.32
2023-04-28T14:41:54.556Z,6.00
2023-04-28T14:44:24.502Z,5.15
2023-04-28T14:46:54.592Z,5.03
2023-04-28T14:49:24.644Z,5.47
2023-04-28T14:51:57.645Z,5.30
2023-04-28T14:54:27.602Z,4.97
2023-04-28T14:56:58.730Z,5.10
2023-04-28T14:59:29.948Z,5.00
2023-04-28T15:02:00.038Z,4.72
2023-04-28T15:04:31.579Z,5.07
2023-04-28T15:07:04.237Z,5.00
2023-04-28T15:09:34.366Z,5.22
2023-04-28T15:12:05.190Z,4.97
2023-04-28T15:14:35.455Z,5.20
2023-04-28T15:17:05.524Z,4.80
2023-04-28T15:19:35.753Z,5.15
2023-04-28T15:22:08.475Z,4.75
2023-04-28T15:24:38.477Z,5.07
2023-04-28T15:27:08.717Z,4.78
2023-04-28T15:29:38.763Z,4.68
2023-04-28T15:32:09.693Z,4.50
2023-04-28T15:34:40.058Z,4.75
2023-04-28T15:37:45.057Z,4.70
2023-04-28T15:40:18.109Z,5.60
2023-04-28T15:42:49.613Z,5.75
2023-04-28T15:45:21.318Z,5.88
2023-04-28T15:47:55.138Z,5.53
2023-04-28T15:50:25.286Z,5.65
2023-04-28T15:52:58.298Z,5.35
2023-04-28T15:55:28.429Z,4.95
2023-04-28T15:57:58.739Z,5.53
2023-04-28T16:00:28.695Z,5.32
2023-04-28T16:02:58.795Z,4.70
2023-04-28T16:05:29.151Z,5.57
2023-04-28T16:08:01.902Z,6.43
2023-04-28T16:10:32.120Z,5.55
2023-04-28T16:13:02.130Z,5.43
2023-04-28T16:15:34.034Z,5.53
2023-04-28T16:18:04.101Z,6.18
2023-04-28T16:20:34.194Z,5.70
2023-04-28T16:23:09.429Z,6.00
2023-04-28T16:25:39.393Z,5.68
2023-04-28T16:28:09.396Z,5.45
2023-04-28T16:30:39.382Z,6.07
2023-04-28T16:33:09.729Z,4.88
2023-04-28T16:35:39.839Z,6.07
2023-04-28T16:38:12.477Z,5.63
2023-04-28T16:40:42.462Z,5.60
2023-04-28T16:43:12.451Z,6.00
2023-04-28T16:45:42.983Z,5.88
2023-04-28T16:48:13.020Z,6.40
2023-04-28T16:50:42.970Z,6.97
2023-04-28T16:53:15.570Z,6.35
2023-04-28T16:55:46.036Z,6.82
2023-04-28T16:58:16.121Z,6.15
2023-04-28T17:00:46.226Z,6.38
2023-04-28T17:03:16.522Z,7.28
2023-04-28T17:05:46.659Z,6.53
2023-04-28T17:08:19.204Z,6.53
2023-04-28T17:10:49.320Z,6.75
2023-04-28T17:13:19.312Z,7.20
2023-04-28T17:15:57.944Z,7.07
2023-04-28T17:18:28.730Z,7.40
2023-04-28T17:20:59.574Z,8.48
2023-04-28T17:23:32.108Z,6.90
2023-04-28T17:26:03.458Z,6.85
2023-04-28T17:28:33.832Z,6.43
2023-04-28T17:31:04.318Z,6.25
2023-04-28T17:33:34.333Z,6.82
2023-04-28T17:36:05.673Z,6.30
2023-04-28T17:38:38.565Z,7.28
2023-04-28T17:41:08.553Z,6.78
2023-04-28T17:43:39.533Z,6.18
2023-04-28T17:46:10.357Z,6.82
2023-04-28T17:48:40.596Z,6.38
2023-04-28T17:51:10.693Z,5.50
2023-04-28T17:53:43.429Z,7.10
2023-04-28T17:56:13.451Z,6.75
2023-04-28T17:58:43.714Z,6.13
2023-04-28T18:01:13.701Z,6.82
2023-04-28T18:03:43.773Z,6.28
2023-04-28T18:06:14.306Z,7.05
2023-04-28T18:08:47.057Z,5.95
2023-04-28T18:11:17.151Z,6.20
2023-04-28T18:13:47.194Z,6.82
2023-04-28T18:16:17.193Z,6.22
2023-04-28T18:18:48.184Z,6.90
2023-04-28T18:21:18.245Z,6.70
2023-04-28T18:23:50.847Z,6.95
2023-04-28T18:26:22.317Z,7.07
2023-04-28T18:28:52.271Z,7.43
2023-04-28T18:31:22.284Z,6.55
2023-04-28T18:33:52.291Z,7.07
2023-04-28T18:36:22.285Z,7.13
2023-04-28T18:38:54.823Z,7.50
2023-04-28T18:41:24.940Z,7.80
2023-04-28T18:43:54.946Z,8.77
2023-04-28T18:46:24.935Z,8.55
2023-04-28T18:48:55.079Z,8.88
2023-04-28T18:51:25.481Z,9.35
2023-04-28T18:53:58.030Z,10.60
2023-04-28T18:56:28.024Z,10.32
2023-04-28T18:58:58.237Z,10.93
2023-04-28T19:01:28.312Z,11.00
2023-04-28T19:03:58.593Z,9.23
2023-04-28T19:06:28.777Z,10.05
2023-04-28T19:09:01.654Z,9.82
2023-04-28T19:11:32.119Z,9.27
2023-04-28T19:14:02.073Z,9.07
2023-04-28T19:16:32.103Z,8.98
2023-04-28T19:19:02.104Z,9.20
2023-04-28T19:21:34.400Z,9.93
2023-04-28T19:24:07.532Z,9.32
2023-04-28T19:26:37.652Z,11.45
2023-04-28T19:29:07.940Z,10.43
2023-04-28T19:31:37.987Z,10.50
2023-04-28T19:34:08.020Z,11.68
2023-04-28T19:36:39.321Z,11.57
2023-04-28T19:39:11.915Z,10.75
2023-04-28T19:41:41.872Z,11.10
2023-04-28T19:44:11.827Z,11.73
2023-04-28T19:46:42.562Z,11.30
2023-04-28T19:49:13.721Z,10.88
2023-04-28T19:51:43.703Z,11.25
2023-04-28T19:54:16.809Z,10.07
2023-04-28T19:56:47.017Z,11.13
2023-04-28T19:59:17.831Z,10.02
2023-04-28T20:01:47.927Z,11.00
2023-04-28T20:04:18.564Z,9.50
2023-04-28T20:06:49.063Z,9.43
2023-04-28T20:09:21.677Z,9.02
2023-04-28T20:11:51.631Z,9.38
2023-04-28T20:14:22.596Z,8.70
2023-04-28T20:16:52.588Z,7.68
2023-04-28T20:19:22.714Z,8.82
2023-04-28T20:21:53.067Z,8.75
2023-04-28T20:24:26.282Z,9.00
2023-04-28T20:26:56.523Z,10.13
2023-04-28T20:29:27.214Z,11.70
2023-04-28T20:31:57.587Z,12.30
2023-04-28T20:34:27.991Z,10.77
2023-04-28T20:36:58.214Z,10.30
2023-04-28T20:39:30.860Z,9.02
2023-04-28T20:42:00.887Z,8.52
2023-04-28T20:44:30.894Z,8.70
2023-04-28T20:47:01.659Z,8.30
2023-04-28T20:49:32.164Z,8.60
2023-04-28T20:52:06.730Z,7.97
2023-04-28T20:57:09.975Z,8.00
2023-04-28T20:59:39.939Z,7.90
2023-04-28T21:02:10.213Z,8.77
2023-04-28T21:04:40.177Z,8.23
2023-04-28T21:07:10.131Z,8.30
2023-04-28T21:09:42.831Z,8.52
2023-04-28T21:12:12.805Z,7.43
2023-04-28T21:14:42.881Z,7.88
2023-04-28T21:17:12.862Z,7.90
2023-04-28T21:19:43.080Z,7.30
2023-04-28T21:22:14.380Z,7.85
2023-04-28T21:24:46.974Z,8.55
2023-04-28T21:27:16.909Z,7.40
2023-04-28T21:29:47.065Z,7.30
2023-04-28T21:32:17.150Z,6.65
2023-04-28T21:34:50.361Z,5.88
2023-04-28T21:37:20.510Z,6.43
2023-04-28T21:39:53.490Z,5.32
2023-04-28T21:42:23.450Z,6.03
2023-04-28T21:44:53.571Z,6.35
2023-04-28T21:47:23.503Z,6.25
2023-04-28T21:49:53.473Z,7.18
2023-04-28T21:52:23.461Z,6.43
2023-04-28T21:54:56.002Z,7.55
2023-04-28T21:57:26.014Z,6.85
2023-04-28T21:59:56.160Z,6.60
2023-04-28T22:02:26.308Z,5.85
2023-04-28T22:04:57.266Z,7.10
2023-04-28T22:07:28.766Z,5.88
2023-04-28T22:10:01.331Z,5.65
2023-04-28T22:12:31.300Z,6.28
2023-04-28T22:15:01.650Z,6.20
2023-04-28T22:17:31.727Z,5.78
2023-04-28T22:20:01.756Z,6.40
2023-04-28T22:22:33.496Z,6.45
2023-04-28T22:25:06.127Z,6.93
2023-04-28T22:27:36.113Z,6.55
2023-04-28T22:30:08.459Z,6.47
2023-04-28T22:32:38.483Z,6.43
2023-04-28T22:35:10.417Z,7.60
2023-04-28T22:37:40.768Z,7.43
2023-04-28T22:40:14.153Z,7.47
2023-04-28T22:42:45.455Z,7.15
2023-04-28T22:45:15.798Z,7.25
2023-04-28T22:47:47.105Z,7.15
2023-04-28T22:50:17.328Z,7.30
2023-04-28T22:52:47.838Z,6.63
2023-04-28T22:55:20.620Z,7.32
2023-04-28T22:57:53.283Z,7.28
2023-04-28T23:00:23.563Z,7.28
2023-04-28T23:02:53.582Z,7.10
2023-04-28T23:05:23.647Z,6.47
2023-04-28T23:07:53.602Z,7.22
2023-04-28T23:10:26.308Z,6.95
2023-04-28T23:12:56.264Z,6.97
2023-04-28T23:15:26.229Z,7.32
2023-04-28T23:17:56.262Z,7.60
2023-04-28T23:20:26.348Z,7.38
2023-04-28T23:22:56.895Z,7.03
2023-04-28T23:25:29.473Z,7.07
2023-04-28T23:27:59.442Z,6.60
2023-04-28T23:30:29.883Z,6.95
2023-04-28T23:33:00.656Z,7.30
2023-04-28T23:35:30.768Z,7.10
2023-04-28T23:38:00.787Z,7.28
2023-04-28T23:40:33.342Z,7.70
2023-04-28T23:43:03.430Z,7.18
2023-04-28T23:45:33.493Z,7.55
2023-04-28T23:48:03.467Z,7.47
2023-04-28T23:50:33.440Z,7.47
2023-04-28T23:53:03.395Z,7.15
2023-04-28T23:55:35.990Z,7.72
2023-04-28T23:58:06.012Z,7.93
